createdAt,value
2023-02-02T00:01:54.339Z,11.70
2023-02-02T00:04:30.201Z,12.20
2023-02-02T00:07:00.040Z,14.50
2023-02-02T00:09:31.492Z,15.50
2023-02-02T00:12:01.515Z,10.30
2023-02-02T00:14:30.278Z,12.20
2023-02-02T00:16:59.319Z,9.30
2023-02-02T00:19:30.567Z,9.10
2023-02-02T00:21:59.586Z,13.60
2023-02-02T00:24:28.633Z,12.50
2023-02-02T00:27:00.240Z,14.10
2023-02-02T00:29:31.825Z,13.20
2023-02-02T00:32:00.502Z,12.70
2023-02-02T00:34:29.771Z,8.00
2023-02-02T00:36:58.674Z,12.20
2023-02-02T00:39:27.483Z,7.60
2023-02-02T00:41:56.916Z,9.50
2023-02-02T00:44:43.959Z,8.30
2023-02-02T00:47:12.948Z,7.80
2023-02-02T00:49:42.278Z,9.40
2023-02-02T00:52:11.454Z,8.30
2023-02-02T00:54:40.451Z,9.70
2023-02-02T00:57:14.626Z,8.10
2023-02-02T00:59:43.888Z,8.00
2023-02-02T01:02:13.806Z,9.20
2023-02-02T01:04:43.107Z,7.90
2023-02-02T01:07:12.891Z,6.10
2023-02-02T01:09:41.580Z,9.70
2023-02-02T01:12:10.389Z,7.10
2023-02-02T01:14:39.140Z,7.70
2023-02-02T01:17:07.881Z,8.30
2023-02-02T01:19:36.752Z,8.10
2023-02-02T01:22:05.756Z,7.70
2023-02-02T01:24:34.853Z,9.70
2023-02-02T01:27:03.649Z,6.70
2023-02-02T01:29:33.089Z,9.00
2023-02-02T01:32:01.931Z,7.40
2023-02-02T01:34:30.800Z,6.90
2023-02-02T01:36:59.561Z,6.30
2023-02-02T01:39:28.368Z,6.30
2023-02-02T01:41:58.114Z,6.40
2023-02-02T01:45:16.741Z,5.70
2023-02-02T01:47:59.971Z,6.30
2023-02-02T01:50:34.865Z,7.80
2023-02-02T01:53:06.536Z,6.50
2023-02-02T01:55:39.313Z,5.70
2023-02-02T02:00:45.631Z,4.80
2023-02-02T02:03:20.699Z,7.70
2023-02-02T02:06:14.399Z,13.10
2023-02-02T02:08:56.907Z,9.00
2023-02-02T02:11:27.000Z,6.30
2023-02-02T02:14:19.686Z,12.50
2023-02-02T02:16:55.318Z,10.50
2023-02-02T02:20:56.242Z,9.10
2023-02-02T02:25:19.527Z,10.40
2023-02-02T02:28:11.058Z,7.70
2023-02-02T02:31:30.737Z,6.50
2023-02-02T02:34:03.345Z,5.60
2023-02-02T02:37:12.145Z,6.70
2023-02-02T02:39:54.743Z,6.50
2023-02-02T02:42:29.236Z,6.80
2023-02-02T02:45:03.041Z,6.40
2023-02-02T02:47:32.782Z,8.40
2023-02-02T02:50:01.637Z,10.50
2023-02-02T02:52:31.301Z,11.30
2023-02-02T02:55:02.202Z,10.10
2023-02-02T02:58:03.030Z,9.50
2023-02-02T03:00:48.367Z,10.90
2023-02-02T03:03:59.845Z,9.90
2023-02-02T03:06:42.928Z,9.60
2023-02-02T03:09:22.615Z,11.40
2023-02-02T03:11:51.393Z,14.10
2023-02-02T03:14:20.044Z,8.70
2023-02-02T03:16:52.806Z,10.20
2023-02-02T03:19:21.854Z,8.60
2023-02-02T03:21:50.558Z,7.20
2023-02-02T03:24:19.323Z,10.30
2023-02-02T03:26:48.276Z,8.60
2023-02-02T03:29:18.196Z,10.10
2023-02-02T03:31:47.567Z,9.20
2023-02-02T03:34:16.244Z,7.10
2023-02-02T03:36:45.189Z,8.30
2023-02-02T03:39:13.827Z,5.50
2023-02-02T03:41:42.478Z,9.20
2023-02-02T03:44:11.170Z,7.10
2023-02-02T03:46:39.856Z,9.70
2023-02-02T03:49:08.501Z,5.50
2023-02-02T03:51:37.168Z,6.10
2023-02-02T03:54:05.997Z,9.80
2023-02-02T03:56:34.865Z,6.60
2023-02-02T03:59:04.516Z,8.10
2023-02-02T04:01:33.593Z,5.10
2023-02-02T04:04:02.325Z,14.20
2023-02-02T04:06:31.326Z,10.50
2023-02-02T04:09:00.114Z,7.00
2023-02-02T04:11:28.869Z,10.80
2023-02-02T04:13:57.687Z,10.10
2023-02-02T04:16:26.593Z,7.60
2023-02-02T04:18:55.269Z,6.60
2023-02-02T04:21:23.994Z,9.50
2023-02-02T04:23:52.939Z,7.60
2023-02-02T04:26:21.649Z,8.10
2023-02-02T04:28:50.454Z,7.40
2023-02-02T04:31:19.713Z,6.20
2023-02-02T04:33:48.502Z,6.10
2023-02-02T04:36:17.252Z,6.60
2023-02-02T04:38:50.944Z,5.60
2023-02-02T04:41:20.909Z,6.80
2023-02-02T04:43:49.767Z,10.10
2023-02-02T04:46:18.701Z,7.70
2023-02-02T04:48:50.011Z,10.40
2023-02-02T04:51:19.030Z,9.80
2023-02-02T04:53:48.497Z,12.40
2023-02-02T04:56:19.599Z,8.70
2023-02-02T04:58:49.481Z,9.70
2023-02-02T05:01:21.098Z,10.60
2023-02-02T05:03:51.691Z,10.20
2023-02-02T05:06:20.585Z,6.60
2023-02-02T05:08:49.457Z,7.60
2023-02-02T05:11:22.923Z,8.70
2023-02-02T05:13:54.283Z,6.30
2023-02-02T05:16:25.897Z,8.30
2023-02-02T05:18:58.103Z,8.20
2023-02-02T05:21:27.024Z,12.40
2023-02-02T05:23:55.943Z,9.60
2023-02-02T05:26:27.702Z,8.60
2023-02-02T05:28:57.761Z,12.60
2023-02-02T05:31:26.859Z,11.20
2023-02-02T05:33:55.785Z,12.40
2023-02-02T05:36:24.431Z,14.20
2023-02-02T05:38:53.265Z,16.90
2023-02-02T05:41:22.150Z,22.70
2023-02-02T05:43:50.932Z,19.60
2023-02-02T05:46:19.708Z,13.70
2023-02-02T05:48:48.544Z,15.00
2023-02-02T05:51:34.172Z,26.40
2023-02-02T05:54:03.124Z,20.40
2023-02-02T05:56:31.805Z,28.50
2023-02-02T05:59:00.786Z,22.40
2023-02-02T06:01:29.409Z,18.20
2023-02-02T06:03:58.034Z,14.60
2023-02-02T06:06:27.251Z,16.60
2023-02-02T06:08:56.038Z,14.70
2023-02-02T06:11:24.661Z,18.10
2023-02-02T06:13:54.607Z,17.30
2023-02-02T06:16:23.517Z,16.70
2023-02-02T06:18:52.655Z,20.80
2023-02-02T06:21:24.719Z,20.00
2023-02-02T06:23:53.506Z,23.50
2023-02-02T06:26:22.091Z,23.50
2023-02-02T06:28:54.253Z,18.40
2023-02-02T06:31:23.806Z,17.60
2023-02-02T06:33:58.388Z,21.20
2023-02-02T06:36:28.444Z,22.40
2023-02-02T06:38:58.332Z,19.20
2023-02-02T06:41:27.010Z,17.50
2023-02-02T06:43:56.088Z,19.00
2023-02-02T06:46:25.266Z,21.90
2023-02-02T06:48:53.980Z,18.30
2023-02-02T06:51:22.576Z,19.50
2023-02-02T06:53:51.104Z,20.60
2023-02-02T06:56:19.616Z,16.80
2023-02-02T06:58:48.184Z,20.10
2023-02-02T07:01:16.982Z,22.90
2023-02-02T07:03:52.271Z,23.70
2023-02-02T07:06:24.736Z,23.10
2023-02-02T07:09:01.597Z,20.50
2023-02-02T07:11:36.721Z,23.20
2023-02-02T07:14:07.511Z,19.90
2023-02-02T07:16:36.135Z,24.10
2023-02-02T07:19:04.729Z,18.60
2023-02-02T07:21:36.434Z,19.90
2023-02-02T07:24:07.160Z,20.80
2023-02-02T07:26:36.742Z,28.40
2023-02-02T07:29:05.815Z,24.90
2023-02-02T07:31:36.587Z,27.20
2023-02-02T07:34:06.160Z,31.30
2023-02-02T07:36:35.329Z,21.30
2023-02-02T07:39:05.415Z,19.80
2023-02-02T07:41:37.153Z,22.60
2023-02-02T07:44:07.555Z,19.60
2023-02-02T07:46:36.248Z,20.10
2023-02-02T07:49:06.511Z,18.20
2023-02-02T07:51:36.763Z,15.50
2023-02-02T07:54:06.818Z,22.20
2023-02-02T07:56:35.921Z,21.90
2023-02-02T07:59:04.993Z,21.40
2023-02-02T08:01:33.783Z,21.40
2023-02-02T08:04:04.600Z,15.90
2023-02-02T08:06:40.486Z,17.00
2023-02-02T08:09:10.735Z,30.10
2023-02-02T08:11:39.609Z,13.20
2023-02-02T08:14:08.535Z,30.00
2023-02-02T08:16:37.280Z,18.10
2023-02-02T08:19:06.026Z,21.80
2023-02-02T08:21:35.541Z,20.70
2023-02-02T08:24:05.355Z,20.90
2023-02-02T08:26:34.079Z,18.10
2023-02-02T08:29:06.829Z,20.20
2023-02-02T08:31:42.127Z,22.70
2023-02-02T08:34:14.102Z,25.50
2023-02-02T08:36:42.821Z,23.00
2023-02-02T08:39:13.342Z,15.80
2023-02-02T08:41:41.910Z,16.10
2023-02-02T08:44:14.607Z,22.20
2023-02-02T08:46:43.650Z,16.40
2023-02-02T08:49:13.965Z,18.60
2023-02-02T08:51:43.268Z,23.60
2023-02-02T08:54:12.783Z,21.10
2023-02-02T08:56:42.695Z,25.40
2023-02-02T08:59:12.091Z,21.70
2023-02-02T09:01:40.519Z,17.80
2023-02-02T09:04:18.794Z,15.60
2023-02-02T09:06:47.428Z,15.70
2023-02-02T09:09:17.169Z,15.70
2023-02-02T09:11:46.127Z,19.20
2023-02-02T09:14:14.806Z,12.90
2023-02-02T09:16:43.445Z,14.00
2023-02-02T09:19:12.617Z,15.40
2023-02-02T09:21:42.208Z,13.50
2023-02-02T09:24:14.063Z,14.60
2023-02-02T09:26:44.495Z,9.40
2023-02-02T09:29:17.844Z,10.20
2023-02-02T09:31:47.247Z,13.50
2023-02-02T09:34:16.444Z,17.50
2023-02-02T09:36:46.826Z,26.60
2023-02-02T09:39:16.809Z,17.70
2023-02-02T09:41:45.227Z,17.40
2023-02-02T09:44:29.239Z,16.50
2023-02-02T09:47:12.900Z,20.10
2023-02-02T09:50:11.984Z,12.10
2023-02-02T09:53:09.584Z,12.40
2023-02-02T09:55:43.347Z,21.60
2023-02-02T09:58:26.312Z,15.70
2023-02-02T10:01:15.413Z,9.60
2023-02-02T10:03:56.151Z,12.10
2023-02-02T10:06:50.491Z,21.00
2023-02-02T10:09:48.387Z,19.70
2023-02-02T10:12:53.151Z,21.70
2023-02-02T10:16:01.799Z,11.00
2023-02-02T10:18:49.339Z,16.50
2023-02-02T10:22:00.622Z,7.20
2023-02-02T10:24:31.950Z,10.60
2023-02-02T10:27:09.272Z,9.10
2023-02-02T10:30:03.965Z,11.70
2023-02-02T10:33:02.047Z,11.70
2023-02-02T10:35:50.671Z,6.00
2023-02-02T10:38:42.971Z,8.30
2023-02-02T10:41:39.105Z,4.40
2023-02-02T10:44:31.861Z,6.50
2023-02-02T10:47:04.396Z,10.70
2023-02-02T10:52:11.855Z,9.00
2023-02-02T10:54:59.543Z,13.90
2023-02-02T10:58:15.257Z,12.80
2023-02-02T11:00:51.021Z,11.60
2023-02-02T11:03:27.515Z,5.60
2023-02-02T11:06:18.619Z,11.90
2023-02-02T11:08:56.992Z,13.40
2023-02-02T11:11:45.515Z,10.20
2023-02-02T11:14:45.271Z,8.70
2023-02-02T11:17:24.741Z,10.20
2023-02-02T11:19:55.815Z,12.30
2023-02-02T11:22:45.069Z,7.50
2023-02-02T11:25:34.541Z,11.20
2023-02-02T11:28:24.361Z,16.50
2023-02-02T11:30:53.558Z,12.20
2023-02-02T11:33:35.826Z,14.00
2023-02-02T11:36:21.615Z,7.60
2023-02-02T11:39:17.349Z,8.60
2023-02-02T11:41:45.964Z,10.70
2023-02-02T11:44:27.857Z,7.10
2023-02-02T11:46:57.540Z,6.70
2023-02-02T11:49:27.558Z,8.30
2023-02-02T11:51:58.507Z,10.70
2023-02-02T11:54:35.883Z,7.80
2023-02-02T11:57:09.431Z,10.20
2023-02-02T11:59:45.092Z,10.50
2023-02-02T12:02:24.319Z,8.80
2023-02-02T12:05:16.445Z,3.30
2023-02-02T12:07:46.890Z,2.30
2023-02-02T12:10:34.027Z,3.00
2023-02-02T12:13:49.172Z,2.40
2023-02-02T12:19:04.925Z,3.20
2023-02-02T12:22:19.961Z,8.10
2023-02-02T12:25:32.754Z,7.30
2023-02-02T12:28:40.406Z,4.50
2023-02-02T12:31:28.793Z,6.90
2023-02-02T12:34:13.764Z,5.10
2023-02-02T12:37:13.903Z,4.60
2023-02-02T12:40:30.186Z,4.90
2023-02-02T12:43:41.169Z,7.20
2023-02-02T12:46:26.948Z,6.00
2023-02-02T12:49:19.749Z,4.50
2023-02-02T12:52:43.377Z,3.50
2023-02-02T12:58:56.210Z,5.80
2023-02-02T13:01:49.388Z,3.50
2023-02-02T13:04:53.089Z,6.50
2023-02-02T13:07:36.703Z,5.20
2023-02-02T13:10:13.453Z,5.50
2023-02-02T13:12:52.691Z,5.60
2023-02-02T13:15:27.706Z,5.30
2023-02-02T13:18:01.461Z,10.60
2023-02-02T13:20:55.668Z,9.50
2023-02-02T13:23:37.761Z,6.60
2023-02-02T13:26:17.347Z,6.20
2023-02-02T13:28:53.171Z,5.50
2023-02-02T13:32:00.998Z,13.60
2023-02-02T13:34:38.349Z,10.30
2023-02-02T13:37:42.200Z,9.60
2023-02-02T13:40:40.463Z,6.90
2023-02-02T13:43:49.310Z,5.60
2023-02-02T13:46:28.204Z,3.50
2023-02-02T13:49:31.021Z,7.10
2023-02-02T13:52:24.601Z,4.20
2023-02-02T13:55:28.030Z,6.70
2023-02-02T13:58:13.538Z,6.20
2023-02-02T14:00:52.105Z,5.40
2023-02-02T14:03:42.479Z,9.50
2023-02-02T14:06:24.124Z,5.20
2023-02-02T14:09:03.114Z,6.50
2023-02-02T14:11:34.264Z,6.60
2023-02-02T14:14:32.497Z,8.60
2023-02-02T14:17:14.134Z,5.10
2023-02-02T14:20:00.866Z,7.30
2023-02-02T14:22:44.871Z,11.90
2023-02-02T14:25:33.706Z,23.60
2023-02-02T14:28:09.514Z,16.40
2023-02-02T14:30:39.822Z,9.20
2023-02-02T14:33:37.955Z,14.10
2023-02-02T14:36:15.016Z,14.80
2023-02-02T14:38:53.038Z,7.80
2023-02-02T14:41:59.845Z,8.00
2023-02-02T14:44:30.732Z,14.80
2023-02-02T14:46:59.323Z,15.90
2023-02-02T14:49:35.658Z,16.30
2023-02-02T14:52:05.664Z,14.00
2023-02-02T14:54:42.713Z,10.10
2023-02-02T14:57:28.028Z,12.50
2023-02-02T15:00:01.113Z,10.80
2023-02-02T15:02:30.030Z,10.30
2023-02-02T15:05:29.711Z,15.00
2023-02-02T15:08:28.297Z,25.60
2023-02-02T15:11:29.086Z,19.40
2023-02-02T15:14:07.457Z,12.10
2023-02-02T15:16:40.026Z,22.50
2023-02-02T15:19:39.838Z,15.20
2023-02-02T15:22:41.580Z,13.50
2023-02-02T15:25:20.303Z,25.40
2023-02-02T15:28:33.873Z,25.40
2023-02-02T15:31:49.827Z,22.70
2023-02-02T15:34:45.986Z,20.00
2023-02-02T15:37:40.317Z,20.40
2023-02-02T15:40:21.718Z,17.40
2023-02-02T15:43:00.455Z,25.60
2023-02-02T15:45:32.058Z,27.20
2023-02-02T15:48:05.659Z,33.70
2023-02-02T15:50:34.416Z,43.80
2023-02-02T15:53:03.421Z,46.20
2023-02-02T15:55:36.192Z,31.90
2023-02-02T15:58:38.483Z,36.00
2023-02-02T16:01:21.386Z,35.40
2023-02-02T16:04:17.708Z,26.60
2023-02-02T16:06:47.492Z,37.20
2023-02-02T16:09:26.913Z,27.20
2023-02-02T16:11:55.646Z,30.50
2023-02-02T16:14:24.294Z,26.00
2023-02-02T16:16:52.954Z,28.60
2023-02-02T16:19:25.540Z,32.50
2023-02-02T16:21:56.525Z,48.90
2023-02-02T16:24:33.883Z,51.30
2023-02-02T16:27:08.340Z,50.60
2023-02-02T16:29:39.619Z,50.70
2023-02-02T16:32:27.022Z,40.00
2023-02-02T16:34:56.593Z,34.10
2023-02-02T16:37:36.619Z,32.80
2023-02-02T16:40:29.724Z,38.40
2023-02-02T16:43:20.774Z,34.80
2023-02-02T16:45:56.405Z,33.60
2023-02-02T16:48:39.103Z,40.20
2023-02-02T16:51:16.764Z,31.00
2023-02-02T16:54:00.975Z,34.60
2023-02-02T16:56:45.351Z,35.50
2023-02-02T16:59:38.071Z,32.40
2023-02-02T17:02:32.388Z,42.30
2023-02-02T17:05:17.313Z,47.00
2023-02-02T17:07:54.159Z,40.90
2023-02-02T17:10:44.658Z,47.50
2023-02-02T17:13:32.448Z,53.40
2023-02-02T17:16:01.036Z,46.80
2023-02-02T17:18:29.747Z,48.40
2023-02-02T17:21:04.437Z,48.10
2023-02-02T17:23:36.508Z,44.90
2023-02-02T17:26:12.373Z,45.10
2023-02-02T17:28:42.150Z,52.30
2023-02-02T17:31:18.286Z,54.40
2023-02-02T17:33:50.787Z,56.50
2023-02-02T17:36:19.803Z,61.80
2023-02-02T17:38:48.856Z,57.50
2023-02-02T17:41:19.283Z,56.60
2023-02-02T17:43:47.913Z,58.00
2023-02-02T17:46:18.867Z,55.20
2023-02-02T17:48:47.601Z,60.40
2023-02-02T17:51:17.047Z,60.90
2023-02-02T17:53:46.499Z,71.80
2023-02-02T17:56:15.112Z,63.30
2023-02-02T17:58:43.587Z,62.90
2023-02-02T18:01:12.924Z,66.70
2023-02-02T18:03:46.222Z,61.30
2023-02-02T18:06:14.875Z,62.20
2023-02-02T18:08:44.520Z,66.40
2023-02-02T18:11:15.027Z,65.60
2023-02-02T18:13:44.599Z,61.40
2023-02-02T18:16:13.767Z,59.50
2023-02-02T18:18:42.526Z,70.30
2023-02-02T18:21:12.284Z,71.50
2023-02-02T18:23:41.230Z,67.20
2023-02-02T18:26:20.449Z,61.00
2023-02-02T18:28:51.223Z,70.10
2023-02-02T18:31:25.181Z,69.60
2023-02-02T18:33:55.280Z,67.00
2023-02-02T18:36:24.023Z,72.00
2023-02-02T18:38:54.374Z,62.50
2023-02-02T18:41:23.249Z,62.50
2023-02-02T18:43:55.478Z,60.80
2023-02-02T18:46:24.693Z,72.30
2023-02-02T18:48:55.866Z,72.70
2023-02-02T18:51:27.910Z,75.70
2023-02-02T18:54:00.470Z,76.60
2023-02-02T18:56:31.153Z,72.20
2023-02-02T18:59:02.108Z,73.70
2023-02-02T19:01:33.136Z,69.90
2023-02-02T19:04:02.883Z,61.30
2023-02-02T19:06:50.700Z,73.20
2023-02-02T19:09:21.033Z,61.90
2023-02-02T19:11:55.141Z,73.40
2023-02-02T19:14:37.765Z,66.00
2023-02-02T19:17:22.458Z,70.30
2023-02-02T19:19:51.797Z,68.80
2023-02-02T19:22:24.793Z,69.00
2023-02-02T19:24:54.736Z,75.10
2023-02-02T19:27:27.134Z,78.80
2023-02-02T19:30:00.395Z,79.20
2023-02-02T19:32:33.786Z,72.70
2023-02-02T19:35:04.862Z,76.00
2023-02-02T19:37:43.415Z,88.80
2023-02-02T19:40:13.695Z,99.00
2023-02-02T19:42:49.810Z,126.40
2023-02-02T19:45:31.311Z,91.60
2023-02-02T19:48:17.734Z,95.30
2023-02-02T19:50:47.786Z,67.20
2023-02-02T19:53:30.502Z,64.60
2023-02-02T19:58:37.384Z,57.80
2023-02-02T20:01:21.002Z,64.90
2023-02-02T20:03:51.122Z,61.10
2023-02-02T20:06:25.700Z,63.90
2023-02-02T20:08:54.408Z,61.40
2023-02-02T20:11:32.707Z,66.80
2023-02-02T20:14:26.723Z,60.40
2023-02-02T20:17:06.895Z,55.00
2023-02-02T20:19:41.596Z,54.80
2023-02-02T20:22:31.987Z,54.20
2023-02-02T20:25:06.774Z,53.10
2023-02-02T20:27:35.444Z,51.30
2023-02-02T20:30:36.553Z,48.60
2023-02-02T20:33:24.635Z,52.10
2023-02-02T20:35:53.803Z,51.90
2023-02-02T20:38:29.247Z,48.50
2023-02-02T20:40:59.536Z,44.50
2023-02-02T20:43:28.152Z,43.70
2023-02-02T20:45:57.038Z,41.30
2023-02-02T20:48:27.882Z,41.80
2023-02-02T20:50:56.778Z,37.50
2023-02-02T20:53:25.685Z,36.50
2023-02-02T20:55:58.278Z,33.30
2023-02-02T21:00:55.361Z,30.30
2023-02-02T21:03:24.144Z,32.50
2023-02-02T21:05:52.672Z,33.10
2023-02-02T21:08:21.197Z,42.00
2023-02-02T21:10:49.892Z,35.10
2023-02-02T21:13:18.575Z,38.80
2023-02-02T21:15:47.220Z,43.10
2023-02-02T21:18:15.811Z,41.30
2023-02-02T21:20:44.531Z,39.70
2023-02-02T21:23:13.378Z,37.20
2023-02-02T21:25:41.936Z,53.00
2023-02-02T21:28:10.380Z,49.40
2023-02-02T21:30:39.108Z,35.80
2023-02-02T21:33:07.778Z,41.50
2023-02-02T21:35:36.308Z,42.60
2023-02-02T21:38:15.419Z,38.80
2023-02-02T21:40:44.059Z,36.30
2023-02-02T21:43:18.187Z,41.60
2023-02-02T21:45:51.622Z,42.10
2023-02-02T21:48:20.295Z,45.10
2023-02-02T21:54:35.117Z,40.30
2023-02-02T21:57:05.642Z,37.40
2023-02-02T21:59:36.319Z,34.40
2023-02-02T22:02:41.286Z,41.20
2023-02-02T22:05:19.038Z,43.80
2023-02-02T22:07:49.627Z,45.90
2023-02-02T22:10:29.043Z,38.40
2023-02-02T22:12:56.659Z,37.40
2023-02-02T22:15:29.312Z,35.20
2023-02-02T22:20:29.845Z,38.70
2023-02-02T22:22:57.102Z,38.50
2023-02-02T22:25:35.223Z,33.40
2023-02-02T22:28:29.351Z,32.70
2023-02-02T22:30:58.037Z,31.00
2023-02-02T22:33:26.278Z,40.50
2023-02-02T22:35:53.955Z,37.50
2023-02-02T22:38:25.095Z,39.20
2023-02-02T22:40:52.691Z,33.40
2023-02-02T22:43:21.415Z,35.00
2023-02-02T22:45:48.809Z,31.70
2023-02-02T22:48:16.634Z,31.90
2023-02-02T22:50:44.011Z,33.80
2023-02-02T22:53:13.276Z,31.70
2023-02-02T22:55:40.522Z,36.70
2023-02-02T22:58:07.766Z,33.00
2023-02-02T23:00:35.624Z,30.70
2023-02-02T23:03:03.228Z,18.60
2023-02-02T23:05:30.515Z,34.50
2023-02-02T23:07:57.873Z,28.00
2023-02-02T23:10:27.653Z,28.10
2023-02-02T23:12:57.889Z,28.10
2023-02-02T23:15:25.786Z,29.50
2023-02-02T23:17:53.952Z,37.90
2023-02-02T23:20:21.297Z,48.80
2023-02-02T23:22:49.174Z,43.10
2023-02-02T23:25:18.155Z,35.20
2023-02-02T23:27:45.628Z,32.40
2023-02-02T23:30:14.102Z,36.60
2023-02-02T23:32:41.770Z,36.40
2023-02-02T23:35:10.858Z,33.70
2023-02-02T23:37:38.843Z,39.50
2023-02-02T23:40:07.756Z,34.40
2023-02-02T23:42:35.000Z,33.90
2023-02-02T23:45:03.539Z,34.50
2023-02-02T23:47:33.730Z,27.80
2023-02-02T23:50:05.137Z,19.50
2023-02-02T23:52:33.725Z,31.60
2023-02-02T23:55:02.052Z,33.10
2023-02-02T23:57:30.052Z,34.20
2023-02-02T23:59:57.267Z,31.60
